createdAt,value
2022-10-29T00:00:26.789Z,15.28
2022-10-29T00:03:14.896Z,15.30
2022-10-29T00:05:42.751Z,15.20
2022-10-29T00:10:57.141Z,15.20
2022-10-29T00:13:24.945Z,15.20
2022-10-29T00:15:52.614Z,15.20
2022-10-29T00:18:20.281Z,15.20
2022-10-29T00:20:49.134Z,15.20
2022-10-29T00:23:17.043Z,15.20
2022-10-29T00:25:44.734Z,15.10
2022-10-29T00:28:12.564Z,15.10
2022-10-29T00:30:40.594Z,15.08
2022-10-29T00:33:08.337Z,15.00
2022-10-29T00:35:35.997Z,15.00
2022-10-29T00:38:03.688Z,15.00
2022-10-29T00:40:36.765Z,14.94
2022-10-29T00:46:16.231Z,14.90
2022-10-29T00:51:34.753Z,14.88
2022-10-29T00:57:00.707Z,14.80
2022-10-29T00:59:28.445Z,14.80
2022-10-29T01:01:57.015Z,14.78
2022-10-29T01:04:26.112Z,14.70
2022-10-29T01:06:54.762Z,14.70
2022-10-29T01:09:22.519Z,14.70
2022-10-29T01:18:09.406Z,14.70
2022-10-29T01:21:09.362Z,14.70
2022-10-29T01:24:13.297Z,14.60
2022-10-29T01:27:17.158Z,14.60
2022-10-29T01:33:25.332Z,14.50
2022-10-29T01:36:16.069Z,14.50
2022-10-29T01:39:02.160Z,14.50
2022-10-29T01:41:47.875Z,14.44
2022-10-29T01:44:36.034Z,14.40
2022-10-29T01:47:18.460Z,14.44
2022-10-29T01:49:53.129Z,14.40
2022-10-29T02:01:18.786Z,14.40
2022-10-29T02:07:20.357Z,14.30
2022-10-29T02:12:58.465Z,14.20
2022-10-29T02:15:42.410Z,14.20
2022-10-29T02:20:55.913Z,14.10
2022-10-29T02:23:23.625Z,14.10
2022-10-29T02:25:51.347Z,14.10
2022-10-29T02:31:06.099Z,14.10
2022-10-29T02:33:34.220Z,14.08
2022-10-29T02:36:02.220Z,14.00
2022-10-29T02:41:15.532Z,13.96
2022-10-29T02:43:43.232Z,13.90
2022-10-29T02:46:17.255Z,13.90
2022-10-29T02:48:45.253Z,13.90
2022-10-29T02:51:13.485Z,13.90
2022-10-29T02:53:41.577Z,13.90
2022-10-29T02:56:09.903Z,13.90
2022-10-29T02:58:37.762Z,13.90
2022-10-29T03:01:07.197Z,13.90
2022-10-29T03:03:34.980Z,13.90
2022-10-29T03:06:02.676Z,13.92
2022-10-29T03:08:30.639Z,14.00
2022-10-29T03:10:58.355Z,14.00
2022-10-29T03:13:27.758Z,14.00
2022-10-29T03:24:11.924Z,14.00
2022-10-29T03:26:39.623Z,14.00
2022-10-29T03:29:07.453Z,14.00
2022-10-29T03:31:35.244Z,14.00
2022-10-29T03:34:02.927Z,14.00
2022-10-29T03:36:30.653Z,14.00
2022-10-29T03:38:58.623Z,14.00
2022-10-29T03:44:11.909Z,14.00
2022-10-29T03:46:39.592Z,14.00
2022-10-29T03:49:07.251Z,14.00
2022-10-29T03:51:34.980Z,14.00
2022-10-29T03:54:02.843Z,14.04
2022-10-29T03:56:30.506Z,14.10
2022-10-29T03:58:58.262Z,14.10
2022-10-29T04:04:11.679Z,14.10
2022-10-29T04:06:39.464Z,14.10
2022-10-29T04:11:52.979Z,14.10
2022-10-29T04:14:20.860Z,14.10
2022-10-29T04:16:48.621Z,14.10
2022-10-29T04:19:16.456Z,14.10
2022-10-29T04:30:09.623Z,14.10
2022-10-29T04:32:37.413Z,14.10
2022-10-29T04:37:51.206Z,14.20
2022-10-29T04:40:18.908Z,14.20
2022-10-29T04:42:46.546Z,14.20
2022-10-29T04:45:14.417Z,14.20
2022-10-29T04:47:43.278Z,14.28
2022-10-29T04:50:11.072Z,14.30
2022-10-29T04:52:38.807Z,14.30
2022-10-29T04:55:06.894Z,14.30
2022-10-29T05:00:20.622Z,14.40
2022-10-29T05:02:50.281Z,14.40
2022-10-29T05:08:06.932Z,14.40
2022-10-29T05:10:37.664Z,14.42
2022-10-29T05:13:09.964Z,14.50
2022-10-29T05:15:39.132Z,14.50
2022-10-29T05:18:07.951Z,14.54
2022-10-29T05:20:35.787Z,14.50
2022-10-29T05:23:06.472Z,14.60
2022-10-29T05:25:38.405Z,14.60
2022-10-29T05:28:19.014Z,14.60
2022-10-29T05:33:34.070Z,14.70
2022-10-29T05:36:01.826Z,14.70
2022-10-29T05:41:15.269Z,14.80
2022-10-29T05:43:43.146Z,14.80
2022-10-29T05:48:56.359Z,14.82
2022-10-29T05:51:24.068Z,14.90
2022-10-29T05:56:37.655Z,14.98
2022-10-29T06:15:38.290Z,15.10
2022-10-29T06:18:06.264Z,15.10
2022-10-29T06:20:34.007Z,15.20
2022-10-29T06:23:01.845Z,15.20
2022-10-29T06:25:29.949Z,15.20
2022-10-29T06:30:54.205Z,15.30
2022-10-29T06:36:08.911Z,15.30
2022-10-29T06:44:10.780Z,15.36
2022-10-29T06:46:39.030Z,15.40
2022-10-29T06:49:06.909Z,15.40
2022-10-29T06:51:34.604Z,15.40
2022-10-29T06:56:48.297Z,15.40
2022-10-29T06:59:16.013Z,15.40
2022-10-29T07:01:44.049Z,15.40
2022-10-29T07:04:11.885Z,15.44
2022-10-29T07:06:39.747Z,15.50
2022-10-29T07:09:07.479Z,15.50
2022-10-29T07:11:35.215Z,15.50
2022-10-29T07:14:02.989Z,15.56
2022-10-29T07:16:30.630Z,15.60
2022-10-29T07:21:44.141Z,15.70
2022-10-29T07:24:11.874Z,15.70
2022-10-29T07:26:40.464Z,15.70
2022-10-29T07:31:53.488Z,15.80
2022-10-29T07:34:21.216Z,15.80
2022-10-29T07:36:48.987Z,15.90
2022-10-29T07:39:17.362Z,15.90
2022-10-29T07:44:30.875Z,16.00
2022-10-29T07:46:58.778Z,16.00
2022-10-29T07:49:26.627Z,16.08
2022-10-29T07:54:39.953Z,16.10
2022-10-29T07:57:07.890Z,16.20
2022-10-29T07:59:35.688Z,16.20
2022-10-29T08:02:03.538Z,16.26
2022-10-29T08:04:31.286Z,16.30
2022-10-29T08:09:44.793Z,16.40
2022-10-29T08:12:12.494Z,16.46
2022-10-29T08:14:40.218Z,16.50
2022-10-29T08:17:07.929Z,16.60
2022-10-29T08:19:35.790Z,16.70
2022-10-29T08:24:49.024Z,16.80
2022-10-29T08:27:16.774Z,16.90
2022-10-29T08:32:29.989Z,17.00
2022-10-29T08:34:57.726Z,17.00
2022-10-29T08:37:25.416Z,17.10
2022-10-29T08:39:53.260Z,17.10
2022-10-29T08:42:53.990Z,17.10
2022-10-29T08:45:36.534Z,17.10
2022-10-29T08:48:20.610Z,17.10
2022-10-29T08:50:56.867Z,17.20
2022-10-29T08:53:35.749Z,17.20
2022-10-29T08:56:11.107Z,17.30
2022-10-29T08:58:53.604Z,17.36
2022-10-29T09:01:23.370Z,17.40
2022-10-29T09:07:07.150Z,17.50
2022-10-29T09:10:15.567Z,17.60
2022-10-29T09:13:02.802Z,17.60
2022-10-29T09:15:56.368Z,17.60
2022-10-29T09:18:56.984Z,17.60
2022-10-29T09:21:48.243Z,17.60
2022-10-29T09:30:31.736Z,17.60
2022-10-29T09:33:08.796Z,17.60
2022-10-29T09:35:45.911Z,17.60
2022-10-29T09:38:22.533Z,17.50
2022-10-29T09:40:50.401Z,17.50
2022-10-29T09:43:36.669Z,17.50
2022-10-29T09:46:17.286Z,17.50
2022-10-29T09:48:54.631Z,17.50
2022-10-29T10:00:25.252Z,17.60
2022-10-29T10:03:13.611Z,17.60
2022-10-29T10:06:09.971Z,17.60
2022-10-29T10:09:05.412Z,17.60
2022-10-29T10:11:43.021Z,17.60
2022-10-29T10:14:20.906Z,17.60
2022-10-29T10:19:46.740Z,17.60
2022-10-29T10:22:21.579Z,17.60
2022-10-29T10:24:49.406Z,17.50
2022-10-29T10:30:05.580Z,17.50
2022-10-29T10:32:33.384Z,17.50
2022-10-29T10:43:24.015Z,17.50
2022-10-29T10:46:05.630Z,17.50
2022-10-29T10:48:34.088Z,17.50
2022-10-29T10:51:26.428Z,17.40
2022-10-29T10:53:54.276Z,17.40
2022-10-29T10:56:22.825Z,17.40
2022-10-29T10:59:01.307Z,17.40
2022-10-29T11:01:43.741Z,17.40
2022-10-29T11:04:37.289Z,17.40
2022-10-29T11:07:12.089Z,17.40
2022-10-29T11:12:48.355Z,17.48
2022-10-29T11:15:38.857Z,17.50
2022-10-29T11:18:23.983Z,17.42
2022-10-29T11:21:24.829Z,17.50
2022-10-29T11:24:05.215Z,17.50
2022-10-29T11:26:51.513Z,17.50
2022-10-29T11:29:52.415Z,17.50
2022-10-29T11:35:44.269Z,17.60
2022-10-29T11:41:37.044Z,17.60
2022-10-29T11:47:18.958Z,17.50
2022-10-29T11:52:54.803Z,17.50
2022-10-29T12:02:01.042Z,17.60
2022-10-29T12:05:05.572Z,17.60
2022-10-29T12:08:07.246Z,17.70
2022-10-29T12:10:54.734Z,17.70
2022-10-29T12:17:16.702Z,17.80
2022-10-29T12:19:54.818Z,17.88
2022-10-29T12:25:46.777Z,17.90
2022-10-29T12:28:55.874Z,17.90
2022-10-29T12:32:11.047Z,18.00
2022-10-29T12:35:16.986Z,18.00
2022-10-29T12:37:55.629Z,18.00
2022-10-29T12:40:30.438Z,18.00
2022-10-29T12:43:05.241Z,18.00
2022-10-29T12:49:03.390Z,18.00
2022-10-29T12:51:54.314Z,18.00
2022-10-29T12:54:41.305Z,18.10
2022-10-29T13:04:00.602Z,18.20
2022-10-29T13:06:44.034Z,18.22
2022-10-29T13:09:27.250Z,18.30
2022-10-29T13:11:59.123Z,18.30
2022-10-29T13:14:47.198Z,18.22
2022-10-29T13:17:35.057Z,18.20
2022-10-29T13:23:22.991Z,18.12
2022-10-29T13:25:56.383Z,18.10
2022-10-29T13:28:24.024Z,18.10
2022-10-29T13:31:14.074Z,18.10
2022-10-29T13:33:41.779Z,18.10
2022-10-29T13:36:15.725Z,18.10
2022-10-29T13:39:08.224Z,18.10
2022-10-29T13:44:29.851Z,18.10
2022-10-29T13:47:03.449Z,18.10
2022-10-29T13:58:31.574Z,18.00
2022-10-29T14:01:02.942Z,17.98
2022-10-29T14:06:40.453Z,17.90
2022-10-29T14:09:24.480Z,17.90
2022-10-29T14:12:02.643Z,17.80
2022-10-29T14:14:45.622Z,17.80
2022-10-29T14:17:17.147Z,17.80
2022-10-29T14:22:40.776Z,17.72
2022-10-29T14:25:36.033Z,17.70
2022-10-29T14:28:19.665Z,17.70
2022-10-29T14:30:58.223Z,17.70
2022-10-29T14:33:32.899Z,17.60
2022-10-29T14:39:32.700Z,17.58
2022-10-29T14:45:30.071Z,17.50
2022-10-29T14:53:40.559Z,17.40
2022-10-29T14:56:18.303Z,17.40
2022-10-29T14:58:47.157Z,17.40
2022-10-29T15:01:20.625Z,17.40
2022-10-29T15:03:57.501Z,17.40
2022-10-29T15:06:28.761Z,17.40
2022-10-29T15:09:00.155Z,17.38
2022-10-29T15:11:34.948Z,17.30
2022-10-29T15:14:05.768Z,17.30
2022-10-29T15:22:11.154Z,17.30
2022-10-29T15:24:39.062Z,17.20
2022-10-29T15:29:58.421Z,17.18
2022-10-29T15:32:30.516Z,17.10
2022-10-29T15:40:31.826Z,17.00
2022-10-29T15:43:29.404Z,17.00
2022-10-29T15:45:58.238Z,16.98
2022-10-29T15:48:26.156Z,16.90
2022-10-29T15:50:57.610Z,16.90
2022-10-29T16:04:31.745Z,16.80
2022-10-29T16:07:00.029Z,16.80
2022-10-29T16:17:45.418Z,16.64
2022-10-29T16:20:19.515Z,16.62
2022-10-29T16:22:48.800Z,16.60
2022-10-29T16:28:07.664Z,16.60
2022-10-29T16:33:05.641Z,16.50
2022-10-29T16:35:33.433Z,16.50
2022-10-29T16:38:03.915Z,16.50
2022-10-29T16:40:31.926Z,16.50
2022-10-29T16:43:00.160Z,16.50
2022-10-29T16:45:29.989Z,16.40
2022-10-29T16:50:44.334Z,16.40
2022-10-29T16:53:12.315Z,16.40
2022-10-29T16:55:41.635Z,16.40
2022-10-29T17:01:08.329Z,16.40
2022-10-29T17:03:39.027Z,16.40
2022-10-29T17:06:10.695Z,16.30
2022-10-29T17:08:38.993Z,16.30
2022-10-29T17:11:10.070Z,16.30
2022-10-29T17:13:38.755Z,16.30
2022-10-29T17:19:00.103Z,16.24
2022-10-29T17:27:02.880Z,16.20
2022-10-29T17:29:36.000Z,16.20
2022-10-29T17:32:07.702Z,16.20
2022-10-29T17:40:10.820Z,16.20
2022-10-29T17:45:24.382Z,16.12
2022-10-29T17:47:59.229Z,16.10
2022-10-29T17:50:27.459Z,16.10
2022-10-29T17:52:57.914Z,16.10
2022-10-29T17:55:25.693Z,16.10
2022-10-29T17:57:53.630Z,16.10
2022-10-29T18:00:21.821Z,16.02
2022-10-29T18:02:52.649Z,16.00
2022-10-29T18:05:20.429Z,16.00
2022-10-29T18:13:23.244Z,16.00
2022-10-29T18:15:50.994Z,16.00
2022-10-29T18:18:18.708Z,16.00
2022-10-29T18:23:34.758Z,15.90
2022-10-29T18:26:19.574Z,15.90
2022-10-29T18:28:48.152Z,15.80
2022-10-29T18:34:05.962Z,15.80
2022-10-29T18:36:35.876Z,15.80
2022-10-29T18:39:06.429Z,15.80
2022-10-29T18:41:35.271Z,15.80
2022-10-29T18:49:33.690Z,15.70
2022-10-29T18:54:46.901Z,15.60
2022-10-29T18:57:18.381Z,15.60
2022-10-29T18:59:49.057Z,15.60
2022-10-29T19:05:02.141Z,15.50
2022-10-29T19:07:29.924Z,15.50
2022-10-29T19:10:00.645Z,15.50
2022-10-29T19:12:28.796Z,15.50
2022-10-29T19:14:56.685Z,15.40
2022-10-29T19:22:57.644Z,15.34
2022-10-29T19:28:10.979Z,15.30
2022-10-29T19:33:24.053Z,15.30
2022-10-29T19:35:52.228Z,15.30
2022-10-29T19:38:20.145Z,15.30
2022-10-29T19:43:36.489Z,15.20
2022-10-29T19:46:13.219Z,15.20
2022-10-29T19:51:27.630Z,15.10
2022-10-29T19:53:57.987Z,15.10
2022-10-29T19:56:25.927Z,15.10
2022-10-29T20:01:41.912Z,15.00
2022-10-29T20:09:40.881Z,15.00
2022-10-29T20:12:08.810Z,14.98
2022-10-29T20:14:36.674Z,15.00
2022-10-29T20:17:04.587Z,15.00
2022-10-29T20:19:32.309Z,15.00
2022-10-29T20:22:00.099Z,15.00
2022-10-29T20:24:27.965Z,15.00
2022-10-29T20:32:26.603Z,14.90
2022-10-29T20:34:54.542Z,14.94
2022-10-29T20:40:08.870Z,14.82
2022-10-29T20:42:36.782Z,14.80
2022-10-29T20:45:05.626Z,14.70
2022-10-29T20:47:33.344Z,14.70
2022-10-29T20:52:48.834Z,14.60
2022-10-29T21:00:48.858Z,14.50
2022-10-29T21:03:18.296Z,14.50
2022-10-29T21:08:31.668Z,14.50
2022-10-29T21:11:01.536Z,14.44
2022-10-29T21:13:29.857Z,14.40
2022-10-29T21:16:27.325Z,14.40
2022-10-29T21:18:58.489Z,14.40
2022-10-29T21:21:28.984Z,14.40
2022-10-29T21:23:57.409Z,14.40
2022-10-29T21:26:26.491Z,14.40
2022-10-29T21:28:54.773Z,14.40
2022-10-29T21:31:23.712Z,14.40
2022-10-29T21:36:41.093Z,14.40
2022-10-29T21:39:08.761Z,14.40
2022-10-29T21:41:36.557Z,14.40
2022-10-29T21:44:04.557Z,14.50
2022-10-29T21:46:32.288Z,14.50
2022-10-29T21:49:00.075Z,14.50
2022-10-29T21:51:30.542Z,14.50
2022-10-29T21:54:00.696Z,14.48
2022-10-29T21:56:28.572Z,14.40
2022-10-29T21:58:56.406Z,14.40
2022-10-29T22:01:24.295Z,14.40
2022-10-29T22:03:52.093Z,14.40
2022-10-29T22:09:09.997Z,14.40
2022-10-29T22:11:37.714Z,14.40
2022-10-29T22:14:05.371Z,14.40
2022-10-29T22:16:33.132Z,14.40
2022-10-29T22:19:00.804Z,14.40
2022-10-29T22:21:28.531Z,14.40
2022-10-29T22:23:58.141Z,14.36
2022-10-29T22:26:29.752Z,14.36
2022-10-29T22:28:59.123Z,14.30
2022-10-29T22:31:27.379Z,14.40
2022-10-29T22:33:55.406Z,14.40
2022-10-29T22:36:26.613Z,14.50
2022-10-29T22:39:00.042Z,14.50
2022-10-29T22:41:29.763Z,14.50
2022-10-29T22:43:59.066Z,14.50
2022-10-29T22:52:01.528Z,14.50
2022-10-29T22:54:29.621Z,14.50
2022-10-29T22:56:57.338Z,14.50
2022-10-29T22:59:25.030Z,14.50
2022-10-29T23:01:52.822Z,14.50
2022-10-29T23:04:23.938Z,14.50
2022-10-29T23:06:51.600Z,14.58
2022-10-29T23:09:19.314Z,14.56
2022-10-29T23:11:47.110Z,14.50
2022-10-29T23:17:00.205Z,14.50
2022-10-29T23:19:28.116Z,14.50
2022-10-29T23:24:40.849Z,14.50
2022-10-29T23:27:08.751Z,14.50
2022-10-29T23:29:36.397Z,14.50
2022-10-29T23:32:04.423Z,14.50
2022-10-29T23:34:32.134Z,14.50
2022-10-29T23:37:01.186Z,14.48
2022-10-29T23:39:30.931Z,14.50
2022-10-29T23:41:58.677Z,14.50
2022-10-29T23:44:26.646Z,14.50
2022-10-29T23:46:54.323Z,14.50
2022-10-29T23:49:22.199Z,14.50
2022-10-29T23:54:35.567Z,14.50
2022-10-29T23:57:03.272Z,14.50
